PWSweather.com
Personal Weather Stations
Station Observations
RAINWISE1
Rainwise Factory, Bar Harbor, ME 04609

Rainwise FactoryBar Harbor, ME 04609

Lat: 44.3897429696629, Lon: -68.2077813148499

Elevation: 29

Station Type: Rainwise MK-III

www.rainwise.com

High Low Average
Temperature 73.7°F23.2°C 51.7°F10.9°C 63.4°F17.4°C
Dew Point 92.8°F33.8°C 51.7°F10.9°C 59.8°F15.4°C
Winds 6.5 mph 10.5 kmh Calm Calm 2.0 mph SW3.2 kmh SW
Wind Gusts 10.0 mph16.1 kmh -- 3.0 mph4.8 kmh
Humidity 100% 66% 87%
Pressure 30.23 in1023.7 mb 30.17 in1021.7 mb -
Precipitation 0.00 in0.0 mm - -
Hour Temp Dew Point Humidity Winds Wind Gusts Pressure Precip Precip Rate Daily Precip Total
12:04 AM 57.9°F14.4°C 57.9°F14.4°C 100% 0.2 mph NNW0.3 kmh NNW 0.3 mph0.5 kmh 30.17 in1021.7 mb 0.00 in0.0 mm 0.00 in0.0 mm 0.00 in0.0 mm
12:09 AM 57.7°F14.3°C 57.7°F14.3°C 100% 0.3 mph NNW0.5 kmh NNW 0.6 mph1.0 kmh 30.17 in1021.7 mb 0.00 in0.0 mm 0.00 in0.0 mm 0.00 in0.0 mm
12:14 AM 57.5°F14.2°C 57.5°F14.2°C 100% 0.2 mph NNW0.3 kmh NNW 0.3 mph0.5 kmh 30.17 in1021.7 mb 0.00 in0.0 mm 0.00 in0.0 mm 0.00 in0.0 mm
12:19 AM 57.5°F14.2°C 57.5°F14.2°C 100% Calm Calm -- 30.17 in1021.7 mb 0.00 in0.0 mm 0.00 in0.0 mm 0.00 in0.0 mm
12:24 AM 57.6°F14.2°C 57.6°F14.2°C 100% Calm Calm 0.3 mph0.5 kmh 30.17 in1021.7 mb 0.00 in0.0 mm 0.00 in0.0 mm 0.00 in0.0 mm
12:29 AM 57.7°F14.3°C 57.7°F14.3°C 100% 0.5 mph NNW0.8 kmh NNW 1.2 mph1.9 kmh 30.18 in1022.0 mb 0.00 in0.0 mm 0.00 in0.0 mm 0.00 in0.0 mm
12:34 AM 57.6°F14.2°C 57.3°F14.1°C 99% 0.7 mph NNW1.1 kmh NNW 1.4 mph2.3 kmh 30.18 in1022.0 mb 0.00 in0.0 mm 0.00 in0.0 mm 0.00 in0.0 mm
12:39 AM 57.5°F14.2°C 57.2°F14.0°C 99% Calm Calm 0.6 mph1.0 kmh 30.18 in1022.0 mb 0.00 in0.0 mm 0.00 in0.0 mm 0.00 in0.0 mm
12:44 AM 57.3°F14.1°C 57.3°F14.1°C 100% Calm Calm -- 30.18 in1022.0 mb 0.00 in0.0 mm 0.00 in0.0 mm 0.00 in0.0 mm
12:49 AM 57.2°F14.0°C 57.2°F14.0°C 100% Calm Calm -- 30.18 in1022.0 mb 0.00 in0.0 mm 0.00 in0.0 mm 0.00 in0.0 mm
12:54 AM 57.1°F13.9°C 57.1°F13.9°C 100% Calm Calm -- 30.18 in1022.0 mb 0.00 in0.0 mm 0.00 in0.0 mm 0.00 in0.0 mm
12:59 AM 57.1°F13.9°C 57.1°F13.9°C 100% 0.5 mph NNW0.8 kmh NNW 1.0 mph1.6 kmh 30.18 in1022.0 mb 0.00 in0.0 mm 0.00 in0.0 mm 0.00 in0.0 mm
01:04 AM 57.1°F13.9°C 57.1°F13.9°C 100% 0.4 mph NNW0.6 kmh NNW 1.3 mph2.1 kmh 30.18 in1022.0 mb 0.00 in0.0 mm 0.00 in0.0 mm 0.00 in0.0 mm
01:09 AM 57.1°F13.9°C 57.1°F13.9°C 100% 0.2 mph NNW0.3 kmh NNW 0.9 mph1.4 kmh 30.18 in1022.0 mb 0.00 in0.0 mm 0.00 in0.0 mm 0.00 in0.0 mm
01:14 AM 56.9°F13.8°C 84.4°F29.1°C - 0.2 mph NNW0.3 kmh NNW 0.7 mph1.1 kmh 30.18 in1022.0 mb 0.00 in0.0 mm 0.00 in0.0 mm 0.00 in0.0 mm
01:19 AM 56.8°F13.8°C 56.8°F13.8°C 100% Calm Calm -- 30.18 in1022.0 mb 0.00 in0.0 mm 0.00 in0.0 mm 0.00 in0.0 mm
01:24 AM 57.0°F13.9°C 57.0°F13.9°C 100% Calm Calm -- 30.17 in1021.7 mb 0.00 in0.0 mm 0.00 in0.0 mm 0.00 in0.0 mm
01:29 AM 57.4°F14.1°C 57.4°F14.1°C 100% Calm Calm -- 30.17 in1021.7 mb 0.00 in0.0 mm 0.00 in0.0 mm 0.00 in0.0 mm
01:34 AM 57.6°F14.2°C 57.6°F14.2°C 100% 0.3 mph NNW0.5 kmh NNW 0.7 mph1.1 kmh 30.17 in1021.7 mb 0.00 in0.0 mm 0.00 in0.0 mm 0.00 in0.0 mm
01:39 AM 57.6°F14.2°C 57.3°F14.1°C 99% 0.7 mph NNW1.1 kmh NNW 1.4 mph2.3 kmh 30.17 in1021.7 mb 0.00 in0.0 mm 0.00 in0.0 mm 0.00 in0.0 mm
01:44 AM 57.2°F14.0°C 57.2°F14.0°C 100% 1.2 mph NNW1.9 kmh NNW 1.6 mph2.6 kmh 30.17 in1021.7 mb 0.00 in0.0 mm 0.00 in0.0 mm 0.00 in0.0 mm
01:49 AM 57.0°F13.9°C 57.0°F13.9°C 100% 0.8 mph NNW1.3 kmh NNW 1.6 mph2.6 kmh 30.17 in1021.7 mb 0.00 in0.0 mm 0.00 in0.0 mm 0.00 in0.0 mm
01:54 AM 56.7°F13.7°C 56.4°F13.6°C 99% 0.5 mph NNW0.8 kmh NNW 1.4 mph2.3 kmh 30.17 in1021.7 mb 0.00 in0.0 mm 0.00 in0.0 mm 0.00 in0.0 mm
01:59 AM 56.6°F13.7°C 56.6°F13.7°C 100% 0.3 mph NNW0.5 kmh NNW 0.7 mph1.1 kmh 30.17 in1021.7 mb 0.00 in0.0 mm 0.00 in0.0 mm 0.00 in0.0 mm
02:04 AM 56.5°F13.6°C 56.5°F13.6°C 100% 1.5 mph NNW2.4 kmh NNW 1.9 mph3.1 kmh 30.17 in1021.7 mb 0.00 in0.0 mm 0.00 in0.0 mm 0.00 in0.0 mm
02:09 AM 56.3°F13.5°C 56.0°F13.3°C 99% 1.5 mph NNW2.4 kmh NNW 2.2 mph3.5 kmh 30.17 in1021.7 mb 0.00 in0.0 mm 0.00 in0.0 mm 0.00 in0.0 mm
02:14 AM 56.3°F13.5°C 56.3°F13.5°C 100% 1.0 mph NNW1.6 kmh NNW 1.7 mph2.7 kmh 30.17 in1021.7 mb 0.00 in0.0 mm 0.00 in0.0 mm 0.00 in0.0 mm
02:19 AM 56.2°F13.4°C 56.2°F13.4°C 100% 0.3 mph NNW0.5 kmh NNW 0.6 mph1.0 kmh 30.17 in1021.7 mb 0.00 in0.0 mm 0.00 in0.0 mm 0.00 in0.0 mm
02:24 AM 56.1°F13.4°C 56.1°F13.4°C 100% 0.7 mph NNW1.1 kmh NNW 1.2 mph1.9 kmh 30.17 in1021.7 mb 0.00 in0.0 mm 0.00 in0.0 mm 0.00 in0.0 mm
02:29 AM 55.9°F13.3°C 55.6°F13.1°C 99% 0.9 mph NNW1.4 kmh NNW 1.7 mph2.7 kmh 30.17 in1021.7 mb 0.00 in0.0 mm 0.00 in0.0 mm 0.00 in0.0 mm
02:34 AM 55.7°F13.2°C 55.4°F13.0°C 99% 1.3 mph NNW2.1 kmh NNW 1.8 mph2.9 kmh 30.17 in1021.7 mb 0.00 in0.0 mm 0.00 in0.0 mm 0.00 in0.0 mm
02:39 AM 55.5°F13.1°C 55.5°F13.1°C 100% 1.4 mph NNW2.3 kmh NNW 1.8 mph2.9 kmh 30.18 in1022.0 mb 0.00 in0.0 mm 0.00 in0.0 mm 0.00 in0.0 mm
02:44 AM 55.5°F13.1°C 55.2°F12.9°C 99% 0.5 mph NNW0.8 kmh NNW 1.2 mph1.9 kmh 30.18 in1022.0 mb 0.00 in0.0 mm 0.00 in0.0 mm 0.00 in0.0 mm
02:49 AM 55.5°F13.1°C 55.5°F13.1°C 100% 0.3 mph NNW0.5 kmh NNW 0.7 mph1.1 kmh 30.18 in1022.0 mb 0.00 in0.0 mm 0.00 in0.0 mm 0.00 in0.0 mm
02:54 AM 55.6°F13.1°C 55.6°F13.1°C 100% Calm Calm -- 30.18 in1022.0 mb 0.00 in0.0 mm 0.00 in0.0 mm 0.00 in0.0 mm
02:59 AM 55.7°F13.2°C 55.4°F13.0°C 99% 0.4 mph NNW0.6 kmh NNW 0.7 mph1.1 kmh 30.18 in1022.0 mb 0.00 in0.0 mm 0.00 in0.0 mm 0.00 in0.0 mm
03:04 AM 55.7°F13.2°C 55.4°F13.0°C 99% 0.6 mph NNW1.0 kmh NNW 1.4 mph2.3 kmh 30.18 in1022.0 mb 0.00 in0.0 mm 0.00 in0.0 mm 0.00 in0.0 mm
03:09 AM 55.5°F13.1°C 55.2°F12.9°C 99% Calm Calm -- 30.18 in1022.0 mb 0.00 in0.0 mm 0.00 in0.0 mm 0.00 in0.0 mm
03:14 AM 55.2°F12.9°C 55.2°F12.9°C 100% 1.4 mph NNW2.3 kmh NNW 2.0 mph3.2 kmh 30.18 in1022.0 mb 0.00 in0.0 mm 0.00 in0.0 mm 0.00 in0.0 mm
03:19 AM 55.2°F12.9°C 55.2°F12.9°C 100% 1.6 mph NNW2.6 kmh NNW 2.2 mph3.5 kmh 30.17 in1021.7 mb 0.00 in0.0 mm 0.00 in0.0 mm 0.00 in0.0 mm
03:24 AM 55.4°F13.0°C 55.4°F13.0°C 100% 1.9 mph N3.1 kmh N 2.5 mph4.0 kmh 30.17 in1021.7 mb 0.00 in0.0 mm 0.00 in0.0 mm 0.00 in0.0 mm
03:29 AM 55.7°F13.2°C 83.1°F28.4°C - 2.2 mph NNE3.5 kmh NNE 2.9 mph4.7 kmh 30.17 in1021.7 mb 0.00 in0.0 mm 0.00 in0.0 mm 0.00 in0.0 mm
03:34 AM 55.7°F13.2°C 74.1°F23.4°C - 0.8 mph NNE1.3 kmh NNE 1.4 mph2.3 kmh 30.17 in1021.7 mb 0.00 in0.0 mm 0.00 in0.0 mm 0.00 in0.0 mm
03:39 AM 55.7°F13.2°C 55.7°F13.2°C 100% 1.7 mph N2.7 kmh N 2.5 mph4.0 kmh 30.18 in1022.0 mb 0.00 in0.0 mm 0.00 in0.0 mm 0.00 in0.0 mm
03:44 AM 56.0°F13.3°C 74.0°F23.3°C - 1.5 mph N2.4 kmh N 2.6 mph4.2 kmh 30.18 in1022.0 mb 0.00 in0.0 mm 0.00 in0.0 mm 0.00 in0.0 mm
03:49 AM 56.4°F13.6°C 56.4°F13.6°C 100% 1.3 mph N2.1 kmh N 1.7 mph2.7 kmh 30.18 in1022.0 mb 0.00 in0.0 mm 0.00 in0.0 mm 0.00 in0.0 mm
03:54 AM 56.5°F13.6°C 70.3°F21.3°C - 2.1 mph N3.4 kmh N 2.6 mph4.2 kmh 30.18 in1022.0 mb 0.00 in0.0 mm 0.00 in0.0 mm 0.00 in0.0 mm
03:59 AM 56.5°F13.6°C 56.5°F13.6°C 100% 2.0 mph N3.2 kmh N 2.7 mph4.3 kmh 30.18 in1022.0 mb 0.00 in0.0 mm 0.00 in0.0 mm 0.00 in0.0 mm
04:04 AM 56.6°F13.7°C 56.6°F13.7°C 100% 0.8 mph N1.3 kmh N 1.7 mph2.7 kmh 30.18 in1022.0 mb 0.00 in0.0 mm 0.00 in0.0 mm 0.00 in0.0 mm
04:09 AM 57.0°F13.9°C 56.7°F13.7°C 99% 1.6 mph N2.6 kmh N 2.8 mph4.5 kmh 30.18 in1022.0 mb 0.00 in0.0 mm 0.00 in0.0 mm 0.00 in0.0 mm
04:14 AM 57.5°F14.2°C 57.2°F14.0°C 99% 0.1 mph NNE0.2 kmh NNE 0.3 mph0.5 kmh 30.18 in1022.0 mb 0.00 in0.0 mm 0.00 in0.0 mm 0.00 in0.0 mm
04:19 AM 57.7°F14.3°C 57.7°F14.3°C 100% Calm Calm 0.6 mph1.0 kmh 30.18 in1022.0 mb 0.00 in0.0 mm 0.00 in0.0 mm 0.00 in0.0 mm
04:24 AM 57.5°F14.2°C 71.3°F21.8°C - 1.8 mph N2.9 kmh N 2.3 mph3.7 kmh 30.18 in1022.0 mb 0.00 in0.0 mm 0.00 in0.0 mm 0.00 in0.0 mm
04:29 AM 57.1°F13.9°C 57.1°F13.9°C 100% 1.7 mph NNW2.7 kmh NNW 2.4 mph3.9 kmh 30.18 in1022.0 mb 0.00 in0.0 mm 0.00 in0.0 mm 0.00 in0.0 mm
04:34 AM 57.0°F13.9°C 57.0°F13.9°C 100% 0.7 mph NNW1.1 kmh NNW 1.3 mph2.1 kmh 30.18 in1022.0 mb 0.00 in0.0 mm 0.00 in0.0 mm 0.00 in0.0 mm
04:39 AM 57.1°F13.9°C 57.1°F13.9°C 100% 0.9 mph NNW1.4 kmh NNW 1.7 mph2.7 kmh 30.17 in1021.7 mb 0.00 in0.0 mm 0.00 in0.0 mm 0.00 in0.0 mm
04:44 AM 57.0°F13.9°C 57.0°F13.9°C 100% 1.7 mph NNW2.7 kmh NNW 2.7 mph4.3 kmh 30.18 in1022.0 mb 0.00 in0.0 mm 0.00 in0.0 mm 0.00 in0.0 mm
04:49 AM 57.1°F13.9°C 57.1°F13.9°C 100% 1.9 mph NNW3.1 kmh NNW 2.3 mph3.7 kmh 30.18 in1022.0 mb 0.00 in0.0 mm 0.00 in0.0 mm 0.00 in0.0 mm
04:54 AM 57.1°F13.9°C 70.9°F21.6°C - 1.7 mph N2.7 kmh N 2.2 mph3.5 kmh 30.18 in1022.0 mb 0.00 in0.0 mm 0.00 in0.0 mm 0.00 in0.0 mm
04:59 AM 56.9°F13.8°C 84.4°F29.1°C - 1.3 mph N2.1 kmh N 1.9 mph3.1 kmh 30.18 in1022.0 mb 0.00 in0.0 mm 0.00 in0.0 mm 0.00 in0.0 mm
05:04 AM 56.8°F13.8°C 84.2°F29.0°C - 1.8 mph NNW2.9 kmh NNW 2.2 mph3.5 kmh 30.18 in1022.0 mb 0.00 in0.0 mm 0.00 in0.0 mm 0.00 in0.0 mm
05:09 AM 56.9°F13.8°C 56.9°F13.8°C 100% 2.0 mph NNW3.2 kmh NNW 2.5 mph4.0 kmh 30.18 in1022.0 mb 0.00 in0.0 mm 0.00 in0.0 mm 0.00 in0.0 mm
05:14 AM 56.8°F13.8°C 56.5°F13.6°C 99% 2.0 mph N3.2 kmh N 2.8 mph4.5 kmh 30.18 in1022.0 mb 0.00 in0.0 mm 0.00 in0.0 mm 0.00 in0.0 mm
05:19 AM 56.8°F13.8°C 56.5°F13.6°C 99% 2.0 mph N3.2 kmh N 2.7 mph4.3 kmh 30.18 in1022.0 mb 0.00 in0.0 mm 0.00 in0.0 mm 0.00 in0.0 mm
05:24 AM 57.0°F13.9°C 56.7°F13.7°C 99% 2.0 mph NNE3.2 kmh NNE 2.7 mph4.3 kmh 30.19 in1022.4 mb 0.00 in0.0 mm 0.00 in0.0 mm 0.00 in0.0 mm
05:29 AM 57.0°F13.9°C 56.7°F13.7°C 99% 1.3 mph NNW2.1 kmh NNW 2.1 mph3.4 kmh 30.19 in1022.4 mb 0.00 in0.0 mm 0.00 in0.0 mm 0.00 in0.0 mm
05:34 AM 56.9°F13.8°C 56.9°F13.8°C 100% 1.5 mph NNW2.4 kmh NNW 2.2 mph3.5 kmh 30.19 in1022.4 mb 0.00 in0.0 mm 0.00 in0.0 mm 0.00 in0.0 mm
05:39 AM 56.9°F13.8°C 56.9°F13.8°C 100% 1.4 mph NNW2.3 kmh NNW 2.0 mph3.2 kmh 30.19 in1022.4 mb 0.00 in0.0 mm 0.00 in0.0 mm 0.00 in0.0 mm
05:44 AM 56.7°F13.7°C 56.4°F13.6°C 99% 1.0 mph NNW1.6 kmh NNW 1.6 mph2.6 kmh 30.19 in1022.4 mb 0.00 in0.0 mm 0.00 in0.0 mm 0.00 in0.0 mm
05:49 AM 56.7°F13.7°C 56.7°F13.7°C 100% 1.6 mph NNW2.6 kmh NNW 1.9 mph3.1 kmh 30.19 in1022.4 mb 0.00 in0.0 mm 0.00 in0.0 mm 0.00 in0.0 mm
05:54 AM 56.5°F13.6°C 56.5°F13.6°C 100% 1.8 mph NNW2.9 kmh NNW 2.2 mph3.5 kmh 30.20 in1022.7 mb 0.00 in0.0 mm 0.00 in0.0 mm 0.00 in0.0 mm
05:59 AM 56.3°F13.5°C 56.3°F13.5°C 100% 1.5 mph NNW2.4 kmh NNW 2.0 mph3.2 kmh 30.20 in1022.7 mb 0.00 in0.0 mm 0.00 in0.0 mm 0.00 in0.0 mm
06:04 AM 56.2°F13.4°C 56.2°F13.4°C 100% 0.4 mph NNW0.6 kmh NNW 1.0 mph1.6 kmh 30.20 in1022.7 mb 0.00 in0.0 mm 0.00 in0.0 mm 0.00 in0.0 mm
06:09 AM 56.4°F13.6°C 56.4°F13.6°C 100% 1.0 mph NNW1.6 kmh NNW 1.5 mph2.4 kmh 30.21 in1023.0 mb 0.00 in0.0 mm 0.00 in0.0 mm 0.00 in0.0 mm
06:14 AM 56.5°F13.6°C 56.5°F13.6°C 100% Calm Calm -- 30.21 in1023.0 mb 0.00 in0.0 mm 0.00 in0.0 mm 0.00 in0.0 mm
06:19 AM 56.4°F13.6°C 56.4°F13.6°C 100% 0.3 mph NNW0.5 kmh NNW 0.8 mph1.3 kmh 30.21 in1023.0 mb 0.00 in0.0 mm 0.00 in0.0 mm 0.00 in0.0 mm
06:24 AM 56.2°F13.4°C 55.9°F13.3°C 99% 0.5 mph NNW0.8 kmh NNW 1.3 mph2.1 kmh 30.21 in1023.0 mb 0.00 in0.0 mm 0.00 in0.0 mm 0.00 in0.0 mm
06:29 AM 56.0°F13.3°C 56.0°F13.3°C 100% 1.8 mph NNW2.9 kmh NNW 2.3 mph3.7 kmh 30.21 in1023.0 mb 0.00 in0.0 mm 0.00 in0.0 mm 0.00 in0.0 mm
06:34 AM 56.1°F13.4°C 56.1°F13.4°C 100% 2.0 mph NNW3.2 kmh NNW 2.4 mph3.9 kmh 30.22 in1023.4 mb 0.00 in0.0 mm 0.00 in0.0 mm 0.00 in0.0 mm
06:39 AM 56.2°F13.4°C 56.2°F13.4°C 100% 1.7 mph NNW2.7 kmh NNW 2.1 mph3.4 kmh 30.22 in1023.4 mb 0.00 in0.0 mm 0.00 in0.0 mm 0.00 in0.0 mm
06:44 AM 56.4°F13.6°C 56.4°F13.6°C 100% 1.3 mph N2.1 kmh N 1.7 mph2.7 kmh 30.22 in1023.4 mb 0.00 in0.0 mm 0.00 in0.0 mm 0.00 in0.0 mm
06:49 AM 56.7°F13.7°C 56.7°F13.7°C 100% 1.3 mph NNE2.1 kmh NNE 2.0 mph3.2 kmh 30.22 in1023.4 mb 0.00 in0.0 mm 0.00 in0.0 mm 0.00 in0.0 mm
06:54 AM 56.9°F13.8°C 56.9°F13.8°C 100% 1.1 mph N1.8 kmh N 1.6 mph2.6 kmh 30.22 in1023.4 mb 0.00 in0.0 mm 0.00 in0.0 mm 0.00 in0.0 mm
06:59 AM 57.2°F14.0°C 57.2°F14.0°C 100% 1.4 mph NNW2.3 kmh NNW 2.0 mph3.2 kmh 30.22 in1023.4 mb 0.00 in0.0 mm 0.00 in0.0 mm 0.00 in0.0 mm
07:04 AM 57.6°F14.2°C 57.6°F14.2°C 100% 1.7 mph NNW2.7 kmh NNW 2.1 mph3.4 kmh 30.23 in1023.7 mb 0.00 in0.0 mm 0.00 in0.0 mm 0.00 in0.0 mm
07:09 AM 58.2°F14.6°C 58.2°F14.6°C 100% 0.7 mph NNW1.1 kmh NNW 1.8 mph2.9 kmh 30.23 in1023.7 mb 0.00 in0.0 mm 0.00 in0.0 mm 0.00 in0.0 mm
07:14 AM 58.7°F14.8°C 58.4°F14.7°C 99% 0.1 mph NNW0.2 kmh NNW 0.7 mph1.1 kmh 30.23 in1023.7 mb 0.00 in0.0 mm 0.00 in0.0 mm 0.00 in0.0 mm
07:19 AM 59.2°F15.1°C 58.9°F14.9°C 99% 1.7 mph N2.7 kmh N 2.8 mph4.5 kmh 30.23 in1023.7 mb 0.00 in0.0 mm 0.00 in0.0 mm 0.00 in0.0 mm
07:24 AM 59.7°F15.4°C 59.7°F15.4°C 100% 1.3 mph NNE2.1 kmh NNE 2.4 mph3.9 kmh 30.23 in1023.7 mb 0.00 in0.0 mm 0.00 in0.0 mm 0.00 in0.0 mm
07:29 AM 60.0°F15.6°C 60.0°F15.6°C 100% 1.0 mph NNE1.6 kmh NNE 1.7 mph2.7 kmh 30.23 in1023.7 mb 0.00 in0.0 mm 0.00 in0.0 mm 0.00 in0.0 mm
07:34 AM 60.4°F15.8°C 60.4°F15.8°C 100% 0.7 mph NNE1.1 kmh NNE 1.7 mph2.7 kmh 30.23 in1023.7 mb 0.00 in0.0 mm 0.00 in0.0 mm 0.00 in0.0 mm
07:39 AM 60.9°F16.1°C 60.9°F16.1°C 100% 1.6 mph NNE2.6 kmh NNE 2.7 mph4.3 kmh 30.23 in1023.7 mb 0.00 in0.0 mm 0.00 in0.0 mm 0.00 in0.0 mm
07:44 AM 61.0°F16.1°C 61.0°F16.1°C 100% 2.9 mph NNE4.7 kmh NNE 4.4 mph7.1 kmh 30.22 in1023.4 mb 0.00 in0.0 mm 0.00 in0.0 mm 0.00 in0.0 mm
07:49 AM 61.2°F16.2°C 61.2°F16.2°C 100% 1.4 mph N2.3 kmh N 2.8 mph4.5 kmh 30.23 in1023.7 mb 0.00 in0.0 mm 0.00 in0.0 mm 0.00 in0.0 mm
07:54 AM 62.0°F16.7°C 62.0°F16.7°C 100% 1.9 mph NNE3.1 kmh NNE 3.2 mph5.1 kmh 30.23 in1023.7 mb 0.00 in0.0 mm 0.00 in0.0 mm 0.00 in0.0 mm
07:59 AM 62.7°F17.1°C 62.7°F17.1°C 100% 2.1 mph N3.4 kmh N 3.6 mph5.8 kmh 30.23 in1023.7 mb 0.00 in0.0 mm 0.00 in0.0 mm 0.00 in0.0 mm
08:04 AM 62.9°F17.2°C 62.9°F17.2°C 100% 3.0 mph N4.8 kmh N 4.3 mph6.9 kmh 30.23 in1023.7 mb 0.00 in0.0 mm 0.00 in0.0 mm 0.00 in0.0 mm
08:09 AM 63.2°F17.3°C 62.9°F17.2°C 99% 2.3 mph NNE3.7 kmh NNE 3.2 mph5.1 kmh 30.23 in1023.7 mb 0.00 in0.0 mm 0.00 in0.0 mm 0.00 in0.0 mm
08:14 AM 63.2°F17.3°C 62.9°F17.2°C 99% 2.7 mph NNE4.3 kmh NNE 3.8 mph6.1 kmh 30.23 in1023.7 mb 0.00 in0.0 mm 0.00 in0.0 mm 0.00 in0.0 mm
08:19 AM 63.2°F17.3°C 62.9°F17.2°C 99% 2.5 mph ENE4.0 kmh ENE 3.5 mph5.6 kmh 30.23 in1023.7 mb 0.00 in0.0 mm 0.00 in0.0 mm 0.00 in0.0 mm
08:24 AM 63.2°F17.3°C 62.6°F17.0°C 98% 1.9 mph NNE3.1 kmh NNE 2.7 mph4.3 kmh 30.23 in1023.7 mb 0.00 in0.0 mm 0.00 in0.0 mm 0.00 in0.0 mm
08:29 AM 63.4°F17.4°C 63.1°F17.3°C 99% 2.2 mph N3.5 kmh N 3.3 mph5.3 kmh 30.23 in1023.7 mb 0.00 in0.0 mm 0.00 in0.0 mm 0.00 in0.0 mm
08:34 AM 63.6°F17.6°C 63.3°F17.4°C 99% 2.8 mph N4.5 kmh N 4.4 mph7.1 kmh 30.23 in1023.7 mb 0.00 in0.0 mm 0.00 in0.0 mm 0.00 in0.0 mm
08:39 AM 64.1°F17.8°C 63.2°F17.3°C 97% 3.3 mph NE5.3 kmh NE 4.6 mph7.4 kmh 30.23 in1023.7 mb 0.00 in0.0 mm 0.00 in0.0 mm 0.00 in0.0 mm
08:44 AM 64.7°F18.2°C 63.8°F17.7°C 97% 2.6 mph N4.2 kmh N 4.7 mph7.6 kmh 30.22 in1023.4 mb 0.00 in0.0 mm 0.00 in0.0 mm 0.00 in0.0 mm
08:49 AM 65.4°F18.6°C 64.2°F17.9°C 96% 3.2 mph N5.1 kmh N 5.2 mph8.4 kmh 30.22 in1023.4 mb 0.00 in0.0 mm 0.00 in0.0 mm 0.00 in0.0 mm
08:54 AM 65.9°F18.8°C 64.4°F18.0°C 95% 3.1 mph NNE5.0 kmh NNE 4.5 mph7.2 kmh 30.23 in1023.7 mb 0.00 in0.0 mm 0.00 in0.0 mm 0.00 in0.0 mm
08:59 AM 66.0°F18.9°C 64.2°F17.9°C 94% 3.7 mph N6.0 kmh N 5.6 mph9.0 kmh 30.22 in1023.4 mb 0.00 in0.0 mm 0.00 in0.0 mm 0.00 in0.0 mm
09:04 AM 66.5°F19.2°C 64.7°F18.2°C 94% 4.3 mph NNE6.9 kmh NNE 6.4 mph10.3 kmh 30.22 in1023.4 mb 0.00 in0.0 mm 0.00 in0.0 mm 0.00 in0.0 mm
09:09 AM 67.0°F19.4°C 64.9°F18.3°C 93% 2.6 mph NNE4.2 kmh NNE 5.1 mph8.2 kmh 30.22 in1023.4 mb 0.00 in0.0 mm 0.00 in0.0 mm 0.00 in0.0 mm
09:14 AM 67.3°F19.6°C 64.9°F18.3°C 92% 1.8 mph NNE2.9 kmh NNE 3.4 mph5.5 kmh 30.22 in1023.4 mb 0.00 in0.0 mm 0.00 in0.0 mm 0.00 in0.0 mm
09:19 AM 68.1°F20.1°C 66.3°F19.1°C 94% 2.2 mph N3.5 kmh N 3.7 mph6.0 kmh 30.22 in1023.4 mb 0.00 in0.0 mm 0.00 in0.0 mm 0.00 in0.0 mm
09:24 AM 68.7°F20.4°C 66.3°F19.1°C 92% 2.0 mph NE3.2 kmh NE 3.3 mph5.3 kmh 30.22 in1023.4 mb 0.00 in0.0 mm 0.00 in0.0 mm 0.00 in0.0 mm
09:29 AM 69.0°F20.6°C 66.6°F19.2°C 92% 3.3 mph ENE5.3 kmh ENE 4.7 mph7.6 kmh 30.22 in1023.4 mb 0.00 in0.0 mm 0.00 in0.0 mm 0.00 in0.0 mm
09:34 AM 69.0°F20.6°C 66.3°F19.1°C 91% 3.0 mph NE4.8 kmh NE 4.8 mph7.7 kmh 30.22 in1023.4 mb 0.00 in0.0 mm 0.00 in0.0 mm 0.00 in0.0 mm
09:39 AM 68.7°F20.4°C 65.6°F18.7°C 90% 2.2 mph NE3.5 kmh NE 4.0 mph6.4 kmh 30.22 in1023.4 mb 0.00 in0.0 mm 0.00 in0.0 mm 0.00 in0.0 mm
09:44 AM 68.7°F20.4°C 65.6°F18.7°C 90% 1.8 mph NNE2.9 kmh NNE 3.4 mph5.5 kmh 30.22 in1023.4 mb 0.00 in0.0 mm 0.00 in0.0 mm 0.00 in0.0 mm
09:49 AM 68.9°F20.5°C 65.8°F18.8°C 90% 0.9 mph ENE1.4 kmh ENE 2.0 mph3.2 kmh 30.22 in1023.4 mb 0.00 in0.0 mm 0.00 in0.0 mm 0.00 in0.0 mm
09:54 AM 69.3°F20.7°C 66.6°F19.2°C 91% 0.8 mph E1.3 kmh E 2.2 mph3.5 kmh 30.22 in1023.4 mb 0.00 in0.0 mm 0.00 in0.0 mm 0.00 in0.0 mm
09:59 AM 70.1°F21.2°C 68.0°F20.0°C 93% 2.9 mph S4.7 kmh S 4.8 mph7.7 kmh 30.22 in1023.4 mb 0.00 in0.0 mm 0.00 in0.0 mm 0.00 in0.0 mm
10:04 AM 70.3°F21.3°C 67.5°F19.7°C 91% 5.1 mph SSW8.2 kmh SSW 6.9 mph11.1 kmh 30.22 in1023.4 mb 0.00 in0.0 mm 0.00 in0.0 mm 0.00 in0.0 mm
10:09 AM 70.2°F21.2°C 66.5°F19.2°C 88% 5.0 mph SSW8.0 kmh SSW 6.2 mph10.0 kmh 30.22 in1023.4 mb 0.00 in0.0 mm 0.00 in0.0 mm 0.00 in0.0 mm
10:14 AM 70.3°F21.3°C 65.9°F18.8°C 86% 5.6 mph SSW9.0 kmh SSW 7.7 mph12.4 kmh 30.22 in1023.4 mb 0.00 in0.0 mm 0.00 in0.0 mm 0.00 in0.0 mm
10:19 AM 70.4°F21.3°C 66.0°F18.9°C 86% 2.9 mph S4.7 kmh S 5.7 mph9.2 kmh 30.22 in1023.4 mb 0.00 in0.0 mm 0.00 in0.0 mm 0.00 in0.0 mm
10:24 AM 70.8°F21.6°C 66.1°F18.9°C 85% 4.2 mph SSW6.8 kmh SSW 7.0 mph11.3 kmh 30.22 in1023.4 mb 0.00 in0.0 mm 0.00 in0.0 mm 0.00 in0.0 mm
10:29 AM 71.2°F21.8°C 65.8°F18.8°C 83% 4.6 mph SSW7.4 kmh SSW 7.0 mph11.3 kmh 30.22 in1023.4 mb 0.00 in0.0 mm 0.00 in0.0 mm 0.00 in0.0 mm
10:34 AM 71.5°F21.9°C 65.7°F18.7°C 82% 4.4 mph S7.1 kmh S 6.5 mph10.5 kmh 30.22 in1023.4 mb 0.00 in0.0 mm 0.00 in0.0 mm 0.00 in0.0 mm
10:39 AM 71.5°F21.9°C 92.8°F33.8°C - 6.3 mph SSW10.1 kmh SSW 8.5 mph13.7 kmh 30.22 in1023.4 mb 0.00 in0.0 mm 0.00 in0.0 mm 0.00 in0.0 mm
10:44 AM 71.4°F21.9°C 65.3°F18.5°C 81% 5.8 mph SW9.3 kmh SW 8.1 mph13.0 kmh 30.22 in1023.4 mb 0.00 in0.0 mm 0.00 in0.0 mm 0.00 in0.0 mm
10:49 AM 71.6°F22.0°C 65.1°F18.4°C 80% 5.0 mph SSW8.0 kmh SSW 7.3 mph11.7 kmh 30.22 in1023.4 mb 0.00 in0.0 mm 0.00 in0.0 mm 0.00 in0.0 mm
10:54 AM 72.1°F22.3°C 65.2°F18.4°C 79% 5.4 mph S8.7 kmh S 8.2 mph13.2 kmh 30.22 in1023.4 mb 0.00 in0.0 mm 0.00 in0.0 mm 0.00 in0.0 mm
10:59 AM 72.5°F22.5°C 65.2°F18.4°C 78% 3.4 mph SE5.5 kmh SE 5.1 mph8.2 kmh 30.22 in1023.4 mb 0.00 in0.0 mm 0.00 in0.0 mm 0.00 in0.0 mm
11:04 AM 72.8°F22.7°C 65.5°F18.6°C 78% 4.3 mph SSW6.9 kmh SSW 6.3 mph10.1 kmh 30.22 in1023.4 mb 0.00 in0.0 mm 0.00 in0.0 mm 0.00 in0.0 mm
11:09 AM 73.2°F22.9°C 65.5°F18.6°C 77% 2.7 mph SSW4.3 kmh SSW 4.8 mph7.7 kmh 30.22 in1023.4 mb 0.00 in0.0 mm 0.00 in0.0 mm 0.00 in0.0 mm
11:14 AM 73.2°F22.9°C 64.8°F18.2°C 75% 2.2 mph ENE3.5 kmh ENE 3.9 mph6.3 kmh 30.22 in1023.4 mb 0.00 in0.0 mm 0.00 in0.0 mm 0.00 in0.0 mm
11:19 AM 72.9°F22.7°C 64.1°F17.8°C 74% 2.7 mph S4.3 kmh S 4.4 mph7.1 kmh 30.22 in1023.4 mb 0.00 in0.0 mm 0.00 in0.0 mm 0.00 in0.0 mm
11:24 AM 72.2°F22.3°C 63.8°F17.7°C 75% 2.0 mph ENE3.2 kmh ENE 4.2 mph6.8 kmh 30.22 in1023.4 mb 0.00 in0.0 mm 0.00 in0.0 mm 0.00 in0.0 mm
11:29 AM 71.7°F22.1°C 63.3°F17.4°C 75% 0.8 mph ENE1.3 kmh ENE 1.9 mph3.1 kmh 30.22 in1023.4 mb 0.00 in0.0 mm 0.00 in0.0 mm 0.00 in0.0 mm
11:34 AM 71.9°F22.2°C 63.9°F17.7°C 76% 1.8 mph SE2.9 kmh SE 4.3 mph6.9 kmh 30.21 in1023.0 mb 0.00 in0.0 mm 0.00 in0.0 mm 0.00 in0.0 mm
11:39 AM 72.5°F22.5°C 64.5°F18.1°C 76% 3.9 mph S6.3 kmh S 5.8 mph9.3 kmh 30.21 in1023.0 mb 0.00 in0.0 mm 0.00 in0.0 mm 0.00 in0.0 mm
11:44 AM 72.5°F22.5°C 63.7°F17.6°C 74% 3.5 mph SSE5.6 kmh SSE 6.0 mph9.7 kmh 30.21 in1023.0 mb 0.00 in0.0 mm 0.00 in0.0 mm 0.00 in0.0 mm
11:49 AM 72.2°F22.3°C 63.4°F17.4°C 74% 3.4 mph SSE5.5 kmh SSE 6.2 mph10.0 kmh 30.21 in1023.0 mb 0.00 in0.0 mm 0.00 in0.0 mm 0.00 in0.0 mm
11:54 AM 72.2°F22.3°C 63.1°F17.3°C 73% 5.1 mph S8.2 kmh S 7.6 mph12.2 kmh 30.21 in1023.0 mb 0.00 in0.0 mm 0.00 in0.0 mm 0.00 in0.0 mm
11:59 AM 72.5°F22.5°C 62.9°F17.2°C 72% 3.9 mph SSE6.3 kmh SSE 5.9 mph9.5 kmh 30.21 in1023.0 mb 0.00 in0.0 mm 0.00 in0.0 mm 0.00 in0.0 mm
12:04 PM 72.2°F22.3°C 62.3°F16.8°C 71% 4.4 mph SSE7.1 kmh SSE 7.1 mph11.4 kmh 30.20 in1022.7 mb 0.00 in0.0 mm 0.00 in0.0 mm 0.00 in0.0 mm
12:09 PM 72.3°F22.4°C 62.4°F16.9°C 71% 5.2 mph S8.4 kmh S 8.1 mph13.0 kmh 30.20 in1022.7 mb 0.00 in0.0 mm 0.00 in0.0 mm 0.00 in0.0 mm
12:14 PM 72.6°F22.6°C 62.2°F16.8°C 70% 5.5 mph SE8.9 kmh SE 9.8 mph15.8 kmh 30.20 in1022.7 mb 0.00 in0.0 mm 0.00 in0.0 mm 0.00 in0.0 mm
12:19 PM 72.8°F22.7°C 62.0°F16.7°C 69% 4.7 mph S7.6 kmh S 7.5 mph12.1 kmh 30.20 in1022.7 mb 0.00 in0.0 mm 0.00 in0.0 mm 0.00 in0.0 mm
12:24 PM 73.2°F22.9°C 62.4°F16.9°C 69% 6.2 mph SSW10.0 kmh SSW 9.9 mph15.9 kmh 30.20 in1022.7 mb 0.00 in0.0 mm 0.00 in0.0 mm 0.00 in0.0 mm
12:29 PM 73.2°F22.9°C 62.4°F16.9°C 69% 5.4 mph S8.7 kmh S 8.3 mph13.4 kmh 30.20 in1022.7 mb 0.00 in0.0 mm 0.00 in0.0 mm 0.00 in0.0 mm
12:34 PM 73.0°F22.8°C 62.2°F16.8°C 69% 6.5 mph S10.5 kmh S 9.7 mph15.6 kmh 30.20 in1022.7 mb 0.00 in0.0 mm 0.00 in0.0 mm 0.00 in0.0 mm
12:39 PM 72.9°F22.7°C 61.7°F16.5°C 68% 5.6 mph SSE9.0 kmh SSE 8.4 mph13.5 kmh 30.20 in1022.7 mb 0.00 in0.0 mm 0.00 in0.0 mm 0.00 in0.0 mm
12:44 PM 72.9°F22.7°C 61.7°F16.5°C 68% 5.9 mph SSE9.5 kmh SSE 8.3 mph13.4 kmh 30.20 in1022.7 mb 0.00 in0.0 mm 0.00 in0.0 mm 0.00 in0.0 mm
12:49 PM 73.0°F22.8°C 61.8°F16.6°C 68% 5.2 mph S8.4 kmh S 8.3 mph13.4 kmh 30.20 in1022.7 mb 0.00 in0.0 mm 0.00 in0.0 mm 0.00 in0.0 mm
12:54 PM 73.6°F23.1°C 62.4°F16.9°C 68% 3.8 mph S6.1 kmh S 6.1 mph9.8 kmh 30.19 in1022.4 mb 0.00 in0.0 mm 0.00 in0.0 mm 0.00 in0.0 mm
12:59 PM 73.7°F23.2°C 61.6°F16.4°C 66% 5.4 mph SE8.7 kmh SE 8.0 mph12.9 kmh 30.19 in1022.4 mb 0.00 in0.0 mm 0.00 in0.0 mm 0.00 in0.0 mm
01:04 PM 73.3°F22.9°C 61.2°F16.2°C 66% 4.8 mph SE7.7 kmh SE 7.8 mph12.6 kmh 30.19 in1022.4 mb 0.00 in0.0 mm 0.00 in0.0 mm 0.00 in0.0 mm
01:09 PM 73.2°F22.9°C 61.6°F16.4°C 67% 3.8 mph SE6.1 kmh SE 7.3 mph11.7 kmh 30.19 in1022.4 mb 0.00 in0.0 mm 0.00 in0.0 mm 0.00 in0.0 mm
01:14 PM 73.5°F23.1°C 61.9°F16.6°C 67% 4.5 mph S7.2 kmh S 7.8 mph12.6 kmh 30.19 in1022.4 mb 0.00 in0.0 mm 0.00 in0.0 mm 0.00 in0.0 mm
01:19 PM 73.5°F23.1°C 61.4°F16.3°C 66% 4.2 mph SE6.8 kmh SE 7.4 mph11.9 kmh 30.19 in1022.4 mb 0.00 in0.0 mm 0.00 in0.0 mm 0.00 in0.0 mm
01:24 PM 73.4°F23.0°C 61.8°F16.6°C 67% 5.1 mph SSE8.2 kmh SSE 8.0 mph12.9 kmh 30.19 in1022.4 mb 0.00 in0.0 mm 0.00 in0.0 mm 0.00 in0.0 mm
01:29 PM 73.2°F22.9°C 61.1°F16.2°C 66% 3.7 mph SSE6.0 kmh SSE 6.2 mph10.0 kmh 30.19 in1022.4 mb 0.00 in0.0 mm 0.00 in0.0 mm 0.00 in0.0 mm
01:34 PM 73.4°F23.0°C 61.8°F16.6°C 67% 4.8 mph SE7.7 kmh SE 7.9 mph12.7 kmh 30.19 in1022.4 mb 0.00 in0.0 mm 0.00 in0.0 mm 0.00 in0.0 mm
01:39 PM 73.5°F23.1°C 61.9°F16.6°C 67% 4.6 mph SE7.4 kmh SE 8.1 mph13.0 kmh 30.19 in1022.4 mb 0.00 in0.0 mm 0.00 in0.0 mm 0.00 in0.0 mm
01:44 PM 73.4°F23.0°C 61.3°F16.3°C 66% 5.4 mph SSE8.7 kmh SSE 8.2 mph13.2 kmh 30.18 in1022.0 mb 0.00 in0.0 mm 0.00 in0.0 mm 0.00 in0.0 mm
01:49 PM 73.2°F22.9°C 62.0°F16.7°C 68% 4.8 mph SSE7.7 kmh SSE 7.3 mph11.7 kmh 30.18 in1022.0 mb 0.00 in0.0 mm 0.00 in0.0 mm 0.00 in0.0 mm
01:54 PM 73.0°F22.8°C 61.8°F16.6°C 68% 4.7 mph SSE7.6 kmh SSE 7.5 mph12.1 kmh 30.18 in1022.0 mb 0.00 in0.0 mm 0.00 in0.0 mm 0.00 in0.0 mm
01:59 PM 72.7°F22.6°C 61.5°F16.4°C 68% 4.8 mph S7.7 kmh S 7.8 mph12.6 kmh 30.18 in1022.0 mb 0.00 in0.0 mm 0.00 in0.0 mm 0.00 in0.0 mm
02:04 PM 72.5°F22.5°C 61.3°F16.3°C 68% 6.1 mph SSE9.8 kmh SSE 9.2 mph14.8 kmh 30.18 in1022.0 mb 0.00 in0.0 mm 0.00 in0.0 mm 0.00 in0.0 mm
02:09 PM 72.8°F22.7°C 61.6°F16.4°C 68% 4.0 mph SSE6.4 kmh SSE 6.7 mph10.8 kmh 30.18 in1022.0 mb 0.00 in0.0 mm 0.00 in0.0 mm 0.00 in0.0 mm
02:14 PM 73.4°F23.0°C 62.2°F16.8°C 68% 6.0 mph SSE9.7 kmh SSE 9.9 mph15.9 kmh 30.18 in1022.0 mb 0.00 in0.0 mm 0.00 in0.0 mm 0.00 in0.0 mm
02:19 PM 73.0°F22.8°C 61.8°F16.6°C 68% 4.5 mph SE7.2 kmh SE 9.5 mph15.3 kmh 30.18 in1022.0 mb 0.00 in0.0 mm 0.00 in0.0 mm 0.00 in0.0 mm
02:24 PM 72.2°F22.3°C 61.0°F16.1°C 68% 4.6 mph SSE7.4 kmh SSE 7.3 mph11.7 kmh 30.18 in1022.0 mb 0.00 in0.0 mm 0.00 in0.0 mm 0.00 in0.0 mm
02:29 PM 72.2°F22.3°C 61.5°F16.4°C 69% 5.8 mph SSE9.3 kmh SSE 9.2 mph14.8 kmh 30.18 in1022.0 mb 0.00 in0.0 mm 0.00 in0.0 mm 0.00 in0.0 mm
02:34 PM 71.9°F22.2°C 60.8°F16.0°C 68% 5.9 mph S9.5 kmh S 9.5 mph15.3 kmh 30.18 in1022.0 mb 0.00 in0.0 mm 0.00 in0.0 mm 0.00 in0.0 mm
02:39 PM 71.3°F21.8°C 61.0°F16.1°C 70% 6.0 mph SSE9.7 kmh SSE 8.6 mph13.8 kmh 30.18 in1022.0 mb 0.00 in0.0 mm 0.00 in0.0 mm 0.00 in0.0 mm
02:44 PM 70.9°F21.6°C 61.0°F16.1°C 71% 6.5 mph SSE10.5 kmh SSE 10.0 mph16.1 kmh 30.18 in1022.0 mb 0.00 in0.0 mm 0.00 in0.0 mm 0.00 in0.0 mm
02:49 PM 70.7°F21.5°C 61.2°F16.2°C 72% 4.7 mph SSE7.6 kmh SSE 7.4 mph11.9 kmh 30.18 in1022.0 mb 0.00 in0.0 mm 0.00 in0.0 mm 0.00 in0.0 mm
02:54 PM 71.3°F21.8°C 61.8°F16.6°C 72% 3.6 mph SE5.8 kmh SE 6.3 mph10.1 kmh 30.18 in1022.0 mb 0.00 in0.0 mm 0.00 in0.0 mm 0.00 in0.0 mm
02:59 PM 72.1°F22.3°C 62.2°F16.8°C 71% 3.8 mph SSE6.1 kmh SSE 6.4 mph10.3 kmh 30.18 in1022.0 mb 0.00 in0.0 mm 0.00 in0.0 mm 0.00 in0.0 mm
03:04 PM 72.4°F22.4°C 61.6°F16.4°C 69% 5.0 mph SE8.0 kmh SE 8.1 mph13.0 kmh 30.17 in1021.7 mb 0.00 in0.0 mm 0.00 in0.0 mm 0.00 in0.0 mm
03:09 PM 72.8°F22.7°C 62.0°F16.7°C 69% 5.1 mph S8.2 kmh S 8.0 mph12.9 kmh 30.17 in1021.7 mb 0.00 in0.0 mm 0.00 in0.0 mm 0.00 in0.0 mm
03:14 PM 73.1°F22.8°C 61.9°F16.6°C 68% 4.4 mph S7.1 kmh S 7.5 mph12.1 kmh 30.17 in1021.7 mb 0.00 in0.0 mm 0.00 in0.0 mm 0.00 in0.0 mm
03:19 PM 72.6°F22.6°C 61.4°F16.3°C 68% 5.4 mph SSE8.7 kmh SSE 8.9 mph14.3 kmh 30.17 in1021.7 mb 0.00 in0.0 mm 0.00 in0.0 mm 0.00 in0.0 mm
03:24 PM 72.0°F22.2°C 61.3°F16.3°C 69% 4.0 mph SSE6.4 kmh SSE 5.8 mph9.3 kmh 30.17 in1021.7 mb 0.00 in0.0 mm 0.00 in0.0 mm 0.00 in0.0 mm
03:29 PM 72.0°F22.2°C 61.7°F16.5°C 70% 3.9 mph S6.3 kmh S 5.9 mph9.5 kmh 30.17 in1021.7 mb 0.00 in0.0 mm 0.00 in0.0 mm 0.00 in0.0 mm
03:34 PM 72.3°F22.4°C 62.0°F16.7°C 70% 4.4 mph SSE7.1 kmh SSE 7.1 mph11.4 kmh 30.18 in1022.0 mb 0.00 in0.0 mm 0.00 in0.0 mm 0.00 in0.0 mm
03:39 PM 72.3°F22.4°C 61.5°F16.4°C 69% 4.8 mph S7.7 kmh S 7.9 mph12.7 kmh 30.17 in1021.7 mb 0.00 in0.0 mm 0.00 in0.0 mm 0.00 in0.0 mm
03:44 PM 72.0°F22.2°C 61.3°F16.3°C 69% 4.2 mph SE6.8 kmh SE 8.3 mph13.4 kmh 30.18 in1022.0 mb 0.00 in0.0 mm 0.00 in0.0 mm 0.00 in0.0 mm
03:49 PM 71.7°F22.1°C 61.4°F16.3°C 70% 3.5 mph SSE5.6 kmh SSE 5.7 mph9.2 kmh 30.17 in1021.7 mb 0.00 in0.0 mm 0.00 in0.0 mm 0.00 in0.0 mm
03:54 PM 71.9°F22.2°C 61.6°F16.4°C 70% 3.4 mph SSE5.5 kmh SSE 5.7 mph9.2 kmh 30.17 in1021.7 mb 0.00 in0.0 mm 0.00 in0.0 mm 0.00 in0.0 mm
03:59 PM 71.7°F22.1°C 61.0°F16.1°C 69% 3.0 mph SE4.8 kmh SE 5.6 mph9.0 kmh 30.17 in1021.7 mb 0.00 in0.0 mm 0.00 in0.0 mm 0.00 in0.0 mm
04:04 PM 71.7°F22.1°C 61.4°F16.3°C 70% 4.9 mph S7.9 kmh S 7.0 mph11.3 kmh 30.17 in1021.7 mb 0.00 in0.0 mm 0.00 in0.0 mm 0.00 in0.0 mm
04:09 PM 71.7°F22.1°C 61.4°F16.3°C 70% 3.8 mph SSW6.1 kmh SSW 5.6 mph9.0 kmh 30.17 in1021.7 mb 0.00 in0.0 mm 0.00 in0.0 mm 0.00 in0.0 mm
04:14 PM 71.8°F22.1°C 61.5°F16.4°C 70% 3.4 mph SE5.5 kmh SE 5.7 mph9.2 kmh 30.17 in1021.7 mb 0.00 in0.0 mm 0.00 in0.0 mm 0.00 in0.0 mm
04:19 PM 71.9°F22.2°C 61.2°F16.2°C 69% 3.1 mph SSE5.0 kmh SSE 5.4 mph8.7 kmh 30.17 in1021.7 mb 0.00 in0.0 mm 0.00 in0.0 mm 0.00 in0.0 mm
04:24 PM 71.7°F22.1°C 61.4°F16.3°C 70% 3.6 mph SSE5.8 kmh SSE 5.2 mph8.4 kmh 30.17 in1021.7 mb 0.00 in0.0 mm 0.00 in0.0 mm 0.00 in0.0 mm
04:29 PM 71.7°F22.1°C 61.4°F16.3°C 70% 3.9 mph SSE6.3 kmh SSE 5.9 mph9.5 kmh 30.17 in1021.7 mb 0.00 in0.0 mm 0.00 in0.0 mm 0.00 in0.0 mm
04:34 PM 71.7°F22.1°C 61.4°F16.3°C 70% 4.0 mph S6.4 kmh S 6.3 mph10.1 kmh 30.17 in1021.7 mb 0.00 in0.0 mm 0.00 in0.0 mm 0.00 in0.0 mm
04:39 PM 71.5°F21.9°C 60.8°F16.0°C 69% 4.4 mph SSE7.1 kmh SSE 6.4 mph10.3 kmh 30.17 in1021.7 mb 0.00 in0.0 mm 0.00 in0.0 mm 0.00 in0.0 mm
04:44 PM 71.5°F21.9°C 60.8°F16.0°C 69% 2.7 mph SE4.3 kmh SE 5.3 mph8.5 kmh 30.17 in1021.7 mb 0.00 in0.0 mm 0.00 in0.0 mm 0.00 in0.0 mm
04:49 PM 71.5°F21.9°C 61.2°F16.2°C 70% 3.4 mph SSE5.5 kmh SSE 4.9 mph7.9 kmh 30.17 in1021.7 mb 0.00 in0.0 mm 0.00 in0.0 mm 0.00 in0.0 mm
04:54 PM 71.4°F21.9°C 60.7°F15.9°C 69% 4.4 mph SSE7.1 kmh SSE 7.1 mph11.4 kmh 30.17 in1021.7 mb 0.00 in0.0 mm 0.00 in0.0 mm 0.00 in0.0 mm
04:59 PM 71.2°F21.8°C 60.1°F15.6°C 68% 4.1 mph S6.6 kmh S 6.5 mph10.5 kmh 30.17 in1021.7 mb 0.00 in0.0 mm 0.00 in0.0 mm 0.00 in0.0 mm
05:04 PM 71.2°F21.8°C 60.5°F15.8°C 69% 4.0 mph S6.4 kmh S 6.8 mph10.9 kmh 30.17 in1021.7 mb 0.00 in0.0 mm 0.00 in0.0 mm 0.00 in0.0 mm
05:09 PM 71.2°F21.8°C 60.1°F15.6°C 68% 3.5 mph S5.6 kmh S 5.0 mph8.0 kmh 30.17 in1021.7 mb 0.00 in0.0 mm 0.00 in0.0 mm 0.00 in0.0 mm
05:14 PM 71.0°F21.7°C 59.9°F15.5°C 68% 2.9 mph SSE4.7 kmh SSE 4.9 mph7.9 kmh 30.17 in1021.7 mb 0.00 in0.0 mm 0.00 in0.0 mm 0.00 in0.0 mm
05:19 PM 70.7°F21.5°C 59.6°F15.3°C 68% 3.3 mph SSW5.3 kmh SSW 5.0 mph8.0 kmh 30.18 in1022.0 mb 0.00 in0.0 mm 0.00 in0.0 mm 0.00 in0.0 mm
05:24 PM 70.5°F21.4°C 59.8°F15.4°C 69% 3.3 mph SSE5.3 kmh SSE 5.5 mph8.9 kmh 30.17 in1021.7 mb 0.00 in0.0 mm 0.00 in0.0 mm 0.00 in0.0 mm
05:29 PM 70.4°F21.3°C 59.7°F15.4°C 69% 3.3 mph S5.3 kmh S 4.9 mph7.9 kmh 30.18 in1022.0 mb 0.00 in0.0 mm 0.00 in0.0 mm 0.00 in0.0 mm
05:34 PM 70.4°F21.3°C 59.7°F15.4°C 69% 2.5 mph SSE4.0 kmh SSE 3.9 mph6.3 kmh 30.18 in1022.0 mb 0.00 in0.0 mm 0.00 in0.0 mm 0.00 in0.0 mm
05:39 PM 70.5°F21.4°C 59.8°F15.4°C 69% 2.9 mph ESE4.7 kmh ESE 5.2 mph8.4 kmh 30.18 in1022.0 mb 0.00 in0.0 mm 0.00 in0.0 mm 0.00 in0.0 mm
05:44 PM 70.2°F21.2°C 59.1°F15.1°C 68% 3.5 mph SSE5.6 kmh SSE 5.9 mph9.5 kmh 30.17 in1021.7 mb 0.00 in0.0 mm 0.00 in0.0 mm 0.00 in0.0 mm
05:49 PM 69.8°F21.0°C 59.2°F15.1°C 69% 4.1 mph SSE6.6 kmh SSE 6.0 mph9.7 kmh 30.18 in1022.0 mb 0.00 in0.0 mm 0.00 in0.0 mm 0.00 in0.0 mm
05:54 PM 69.5°F20.8°C 58.5°F14.7°C 68% 3.4 mph SSE5.5 kmh SSE 5.9 mph9.5 kmh 30.18 in1022.0 mb 0.00 in0.0 mm 0.00 in0.0 mm 0.00 in0.0 mm
05:59 PM 69.4°F20.8°C 58.8°F14.9°C 69% 3.0 mph SE4.8 kmh SE 5.5 mph8.9 kmh 30.17 in1021.7 mb 0.00 in0.0 mm 0.00 in0.0 mm 0.00 in0.0 mm
06:04 PM 69.4°F20.8°C 58.4°F14.7°C 68% 4.0 mph SSE6.4 kmh SSE 5.7 mph9.2 kmh 30.17 in1021.7 mb 0.00 in0.0 mm 0.00 in0.0 mm 0.00 in0.0 mm
06:09 PM 69.2°F20.7°C 58.2°F14.6°C 68% 3.5 mph SSE5.6 kmh SSE 5.2 mph8.4 kmh 30.17 in1021.7 mb 0.00 in0.0 mm 0.00 in0.0 mm 0.00 in0.0 mm
06:14 PM 68.9°F20.5°C 58.3°F14.6°C 69% 4.8 mph SSE7.7 kmh SSE 6.6 mph10.6 kmh 30.18 in1022.0 mb 0.00 in0.0 mm 0.00 in0.0 mm 0.00 in0.0 mm
06:19 PM 68.7°F20.4°C 57.7°F14.3°C 68% 3.3 mph SE5.3 kmh SE 5.4 mph8.7 kmh 30.18 in1022.0 mb 0.00 in0.0 mm 0.00 in0.0 mm 0.00 in0.0 mm
06:24 PM 68.5°F20.3°C 57.9°F14.4°C 69% 3.5 mph SSE5.6 kmh SSE 5.5 mph8.9 kmh 30.18 in1022.0 mb 0.00 in0.0 mm 0.00 in0.0 mm 0.00 in0.0 mm
06:29 PM 68.3°F20.2°C 57.7°F14.3°C 69% 3.8 mph SSE6.1 kmh SSE 5.3 mph8.5 kmh 30.18 in1022.0 mb 0.00 in0.0 mm 0.00 in0.0 mm 0.00 in0.0 mm
06:34 PM 68.0°F20.0°C 57.4°F14.1°C 69% 3.2 mph SSE5.1 kmh SSE 4.9 mph7.9 kmh 30.18 in1022.0 mb 0.00 in0.0 mm 0.00 in0.0 mm 0.00 in0.0 mm
06:39 PM 68.0°F20.0°C 57.4°F14.1°C 69% 2.7 mph S4.3 kmh S 4.5 mph7.2 kmh 30.18 in1022.0 mb 0.00 in0.0 mm 0.00 in0.0 mm 0.00 in0.0 mm
06:44 PM 68.0°F20.0°C 57.4°F14.1°C 69% 2.1 mph SSW3.4 kmh SSW 3.3 mph5.3 kmh 30.19 in1022.4 mb 0.00 in0.0 mm 0.00 in0.0 mm 0.00 in0.0 mm
06:49 PM 67.9°F19.9°C 57.7°F14.3°C 70% 1.6 mph SSE2.6 kmh SSE 2.5 mph4.0 kmh 30.19 in1022.4 mb 0.00 in0.0 mm 0.00 in0.0 mm 0.00 in0.0 mm
06:54 PM 67.7°F19.8°C 57.9°F14.4°C 71% 1.9 mph SSE3.1 kmh SSE 2.8 mph4.5 kmh 30.19 in1022.4 mb 0.00 in0.0 mm 0.00 in0.0 mm 0.00 in0.0 mm
06:59 PM 67.4°F19.7°C 57.7°F14.3°C 71% 1.8 mph SSW2.9 kmh SSW 2.4 mph3.9 kmh 30.19 in1022.4 mb 0.00 in0.0 mm 0.00 in0.0 mm 0.00 in0.0 mm
07:04 PM 67.2°F19.6°C 57.5°F14.2°C 71% 1.1 mph SSW1.8 kmh SSW 2.9 mph4.7 kmh 30.19 in1022.4 mb 0.00 in0.0 mm 0.00 in0.0 mm 0.00 in0.0 mm
07:09 PM 66.9°F19.4°C 57.6°F14.2°C 72% 0.1 mph SSW0.2 kmh SSW 0.8 mph1.3 kmh 30.19 in1022.4 mb 0.00 in0.0 mm 0.00 in0.0 mm 0.00 in0.0 mm
07:14 PM 66.5°F19.2°C 58.0°F14.4°C 74% Calm Calm -- 30.19 in1022.4 mb 0.00 in0.0 mm 0.00 in0.0 mm 0.00 in0.0 mm
07:19 PM 65.7°F18.7°C 57.6°F14.2°C 75% Calm Calm -- 30.19 in1022.4 mb 0.00 in0.0 mm 0.00 in0.0 mm 0.00 in0.0 mm
07:24 PM 64.9°F18.3°C 57.9°F14.4°C 78% Calm Calm -- 30.19 in1022.4 mb 0.00 in0.0 mm 0.00 in0.0 mm 0.00 in0.0 mm
07:29 PM 64.5°F18.1°C 57.8°F14.3°C 79% Calm Calm -- 30.19 in1022.4 mb 0.00 in0.0 mm 0.00 in0.0 mm 0.00 in0.0 mm
07:34 PM 64.0°F17.8°C 58.0°F14.4°C 81% Calm Calm -- 30.19 in1022.4 mb 0.00 in0.0 mm 0.00 in0.0 mm 0.00 in0.0 mm
07:39 PM 63.5°F17.5°C 57.9°F14.4°C 82% Calm Calm 0.3 mph0.5 kmh 30.19 in1022.4 mb 0.00 in0.0 mm 0.00 in0.0 mm 0.00 in0.0 mm
07:44 PM 62.9°F17.2°C 57.7°F14.3°C 83% 0.1 mph S0.2 kmh S 0.3 mph0.5 kmh 30.19 in1022.4 mb 0.00 in0.0 mm 0.00 in0.0 mm 0.00 in0.0 mm
07:49 PM 62.4°F16.9°C 57.8°F14.3°C 85% Calm Calm 0.3 mph0.5 kmh 30.19 in1022.4 mb 0.00 in0.0 mm 0.00 in0.0 mm 0.00 in0.0 mm
07:54 PM 61.9°F16.6°C 57.7°F14.3°C 86% Calm Calm 0.3 mph0.5 kmh 30.19 in1022.4 mb 0.00 in0.0 mm 0.00 in0.0 mm 0.00 in0.0 mm
07:59 PM 61.5°F16.4°C 57.9°F14.4°C 88% 0.1 mph SSW0.2 kmh SSW 0.9 mph1.4 kmh 30.19 in1022.4 mb 0.00 in0.0 mm 0.00 in0.0 mm 0.00 in0.0 mm
08:04 PM 61.2°F16.2°C 57.6°F14.2°C 88% Calm Calm -- 30.19 in1022.4 mb 0.00 in0.0 mm 0.00 in0.0 mm 0.00 in0.0 mm
08:09 PM 60.9°F16.1°C 57.9°F14.4°C 90% Calm Calm -- 30.19 in1022.4 mb 0.00 in0.0 mm 0.00 in0.0 mm 0.00 in0.0 mm
08:14 PM 60.7°F15.9°C 57.4°F14.1°C 89% Calm Calm -- 30.20 in1022.7 mb 0.00 in0.0 mm 0.00 in0.0 mm 0.00 in0.0 mm
08:19 PM 60.5°F15.8°C 57.9°F14.4°C 91% Calm Calm -- 30.20 in1022.7 mb 0.00 in0.0 mm 0.00 in0.0 mm 0.00 in0.0 mm
08:24 PM 60.2°F15.7°C 57.6°F14.2°C 91% Calm Calm -- 30.20 in1022.7 mb 0.00 in0.0 mm 0.00 in0.0 mm 0.00 in0.0 mm
08:29 PM 60.0°F15.6°C 57.7°F14.3°C 92% Calm Calm -- 30.20 in1022.7 mb 0.00 in0.0 mm 0.00 in0.0 mm 0.00 in0.0 mm
08:34 PM 59.7°F15.4°C 57.4°F14.1°C 92% Calm Calm -- 30.20 in1022.7 mb 0.00 in0.0 mm 0.00 in0.0 mm 0.00 in0.0 mm
08:39 PM 59.5°F15.3°C 57.5°F14.2°C 93% Calm Calm -- 30.21 in1023.0 mb 0.00 in0.0 mm 0.00 in0.0 mm 0.00 in0.0 mm
08:44 PM 59.1°F15.1°C 57.1°F13.9°C 93% Calm Calm -- 30.21 in1023.0 mb 0.00 in0.0 mm 0.00 in0.0 mm 0.00 in0.0 mm
08:49 PM 58.8°F14.9°C 57.1°F13.9°C 94% Calm Calm -- 30.21 in1023.0 mb 0.00 in0.0 mm 0.00 in0.0 mm 0.00 in0.0 mm
08:54 PM 58.6°F14.8°C 56.9°F13.8°C 94% Calm Calm -- 30.21 in1023.0 mb 0.00 in0.0 mm 0.00 in0.0 mm 0.00 in0.0 mm
08:59 PM 58.3°F14.6°C 56.6°F13.7°C 94% Calm Calm -- 30.21 in1023.0 mb 0.00 in0.0 mm 0.00 in0.0 mm 0.00 in0.0 mm
09:04 PM 58.1°F14.5°C 56.4°F13.6°C 94% Calm Calm -- 30.21 in1023.0 mb 0.00 in0.0 mm 0.00 in0.0 mm 0.00 in0.0 mm
09:09 PM 57.8°F14.3°C 56.1°F13.4°C 94% Calm Calm -- 30.21 in1023.0 mb 0.00 in0.0 mm 0.00 in0.0 mm 0.00 in0.0 mm
09:14 PM 57.6°F14.2°C 56.2°F13.4°C 95% Calm Calm -- 30.21 in1023.0 mb 0.00 in0.0 mm 0.00 in0.0 mm 0.00 in0.0 mm
09:19 PM 57.5°F14.2°C 56.4°F13.6°C 96% Calm Calm -- 30.21 in1023.0 mb 0.00 in0.0 mm 0.00 in0.0 mm 0.00 in0.0 mm
09:24 PM 57.5°F14.2°C 56.4°F13.6°C 96% Calm Calm -- 30.21 in1023.0 mb 0.00 in0.0 mm 0.00 in0.0 mm 0.00 in0.0 mm
09:29 PM 57.4°F14.1°C 56.3°F13.5°C 96% 1.2 mph NNW1.9 kmh NNW 1.7 mph2.7 kmh 30.21 in1023.0 mb 0.00 in0.0 mm 0.00 in0.0 mm 0.00 in0.0 mm
09:34 PM 57.2°F14.0°C 56.1°F13.4°C 96% Calm Calm -- 30.21 in1023.0 mb 0.00 in0.0 mm 0.00 in0.0 mm 0.00 in0.0 mm
09:39 PM 57.2°F14.0°C 56.4°F13.6°C 97% 0.1 mph WSW0.2 kmh WSW 0.8 mph1.3 kmh 30.21 in1023.0 mb 0.00 in0.0 mm 0.00 in0.0 mm 0.00 in0.0 mm
09:44 PM 57.3°F14.1°C 56.5°F13.6°C 97% Calm Calm 0.3 mph0.5 kmh 30.21 in1023.0 mb 0.00 in0.0 mm 0.00 in0.0 mm 0.00 in0.0 mm
09:49 PM 57.4°F14.1°C 56.6°F13.7°C 97% Calm Calm -- 30.21 in1023.0 mb 0.00 in0.0 mm 0.00 in0.0 mm 0.00 in0.0 mm
09:54 PM 57.0°F13.9°C 56.4°F13.6°C 98% Calm Calm -- 30.21 in1023.0 mb 0.00 in0.0 mm 0.00 in0.0 mm 0.00 in0.0 mm
09:59 PM 56.7°F13.7°C 56.1°F13.4°C 98% Calm Calm -- 30.21 in1023.0 mb 0.00 in0.0 mm 0.00 in0.0 mm 0.00 in0.0 mm
10:04 PM 56.5°F13.6°C 55.9°F13.3°C 98% Calm Calm -- 30.21 in1023.0 mb 0.00 in0.0 mm 0.00 in0.0 mm 0.00 in0.0 mm
10:09 PM 56.2°F13.4°C 55.6°F13.1°C 98% Calm Calm -- 30.21 in1023.0 mb 0.00 in0.0 mm 0.00 in0.0 mm 0.00 in0.0 mm
10:14 PM 56.1°F13.4°C 55.5°F13.1°C 98% Calm Calm -- 30.21 in1023.0 mb 0.00 in0.0 mm 0.00 in0.0 mm 0.00 in0.0 mm
10:19 PM 56.0°F13.3°C 55.4°F13.0°C 98% Calm Calm -- 30.21 in1023.0 mb 0.00 in0.0 mm 0.00 in0.0 mm 0.00 in0.0 mm
10:24 PM 55.8°F13.2°C 55.5°F13.1°C 99% Calm Calm -- 30.21 in1023.0 mb 0.00 in0.0 mm 0.00 in0.0 mm 0.00 in0.0 mm
10:29 PM 55.6°F13.1°C 55.3°F12.9°C 99% 1.9 mph NNW3.1 kmh NNW 2.2 mph3.5 kmh 30.21 in1023.0 mb 0.00 in0.0 mm 0.00 in0.0 mm 0.00 in0.0 mm
10:34 PM 55.4°F13.0°C 55.1°F12.8°C 99% 1.9 mph NNW3.1 kmh NNW 2.1 mph3.4 kmh 30.21 in1023.0 mb 0.00 in0.0 mm 0.00 in0.0 mm 0.00 in0.0 mm
10:39 PM 55.1°F12.8°C 54.8°F12.7°C 99% 0.4 mph NNW0.6 kmh NNW 1.0 mph1.6 kmh 30.21 in1023.0 mb 0.00 in0.0 mm 0.00 in0.0 mm 0.00 in0.0 mm
10:44 PM 55.0°F12.8°C 54.7°F12.6°C 99% 0.2 mph NNW0.3 kmh NNW 0.6 mph1.0 kmh 30.21 in1023.0 mb 0.00 in0.0 mm 0.00 in0.0 mm 0.00 in0.0 mm
10:49 PM 55.0°F12.8°C 54.7°F12.6°C 99% 0.4 mph NNW0.6 kmh NNW 0.7 mph1.1 kmh 30.21 in1023.0 mb 0.00 in0.0 mm 0.00 in0.0 mm 0.00 in0.0 mm
10:54 PM 55.1°F12.8°C 54.8°F12.7°C 99% Calm Calm -- 30.21 in1023.0 mb 0.00 in0.0 mm 0.00 in0.0 mm 0.00 in0.0 mm
10:59 PM 54.9°F12.7°C 54.9°F12.7°C 100% 0.3 mph NNW0.5 kmh NNW 0.6 mph1.0 kmh 30.21 in1023.0 mb 0.00 in0.0 mm 0.00 in0.0 mm 0.00 in0.0 mm
11:04 PM 54.7°F12.6°C 54.7°F12.6°C 100% 0.9 mph NNW1.4 kmh NNW 1.5 mph2.4 kmh 30.21 in1023.0 mb 0.00 in0.0 mm 0.00 in0.0 mm 0.00 in0.0 mm
11:09 PM 54.5°F12.5°C 54.5°F12.5°C 100% 1.5 mph NNW2.4 kmh NNW 1.7 mph2.7 kmh 30.21 in1023.0 mb 0.00 in0.0 mm 0.00 in0.0 mm 0.00 in0.0 mm
11:14 PM 54.3°F12.4°C 54.0°F12.2°C 99% 1.7 mph N2.7 kmh N 2.2 mph3.5 kmh 30.21 in1023.0 mb 0.00 in0.0 mm 0.00 in0.0 mm 0.00 in0.0 mm
11:19 PM 54.4°F12.4°C 54.4°F12.4°C 100% 0.5 mph N0.8 kmh N 0.9 mph1.4 kmh 30.21 in1023.0 mb 0.00 in0.0 mm 0.00 in0.0 mm 0.00 in0.0 mm
11:24 PM 54.3°F12.4°C 54.0°F12.2°C 99% 0.2 mph N0.3 kmh N 0.8 mph1.3 kmh 30.21 in1023.0 mb 0.00 in0.0 mm 0.00 in0.0 mm 0.00 in0.0 mm
11:29 PM 54.1°F12.3°C 54.1°F12.3°C 100% 1.5 mph N2.4 kmh N 1.8 mph2.9 kmh 30.21 in1023.0 mb 0.00 in0.0 mm 0.00 in0.0 mm 0.00 in0.0 mm
11:34 PM 53.8°F12.1°C 53.8°F12.1°C 100% 0.7 mph N1.1 kmh N 1.3 mph2.1 kmh 30.21 in1023.0 mb 0.00 in0.0 mm 0.00 in0.0 mm 0.00 in0.0 mm
11:39 PM 53.7°F12.1°C 53.7°F12.1°C 100% 0.2 mph N0.3 kmh N 1.2 mph1.9 kmh 30.21 in1023.0 mb 0.00 in0.0 mm 0.00 in0.0 mm 0.00 in0.0 mm
11:44 PM 53.6°F12.0°C 53.6°F12.0°C 100% Calm Calm -- 30.21 in1023.0 mb 0.00 in0.0 mm 0.00 in0.0 mm 0.00 in0.0 mm
11:49 PM 53.3°F11.8°C 53.3°F11.8°C 100% 0.6 mph N1.0 kmh N 1.3 mph2.1 kmh 30.21 in1023.0 mb 0.00 in0.0 mm 0.00 in0.0 mm 0.00 in0.0 mm
11:54 PM 53.2°F11.8°C 53.2°F11.8°C 100% 1.0 mph N1.6 kmh N 1.3 mph2.1 kmh 30.20 in1022.7 mb 0.00 in0.0 mm 0.00 in0.0 mm 0.00 in0.0 mm